Time;durP1;ratioP1;P1;durP2;ratioP2;P2;SDS_P1;SDS_P2;PMS_P1;PMS_P2;Temp;Humidity;BMP_temperature;BMP_pressure;BME280_temperature;BME280_humidity;BME280_pressure;Samples;Min_cycle;Max_cycle;Signal;HPM_P1;HPM_P2
2021/01/18 00:01:02;;;;;;;;;;;;;;;;;;5062188;28;1871;-75
2021/01/18 00:04:37;;;;;;;;;;;;;;;;;;5063609;28;1416;-76
2021/01/18 00:06:33;;;;;;;;;;;;;;;;;;5053114;28;1298;-77
2021/01/18 00:08:58;;;;;;;;;;;;;;;;;;5055138;28;878;-76
2021/01/18 00:11:23;;;;;;;;;;;;;;;;;;5054753;28;861;-77
2021/01/18 00:13:50;;;;;;;;;;;;;;;;;;5053862;28;1195;-73
2021/01/18 00:16:15;;;;;;;;;;;;;;;;;;5053470;28;1894;-73
2021/01/18 00:18:41;;;;;;;;;;;;;;;;;;5054958;28;979;-74
2021/01/18 00:21:06;;;;;;;;;;;;;;;;;;5054873;28;876;-74
2021/01/18 00:23:31;;;;;;;;;;;;;;;;;;5054877;28;988;-73
2021/01/18 00:25:57;;;;;;;;;;;;;;;;;;5054510;28;1282;-74
2021/01/18 00:28:22;;;;;;;;;;;;;;;;;;5054798;28;889;-74
2021/01/18 00:30:47;;;;;;;;;;;;;;;;;;5053387;28;1314;-73
2021/01/18 00:33:12;;;;;;;;;;;;;;;;;;5053839;28;1334;-73
2021/01/18 00:35:38;;;;;;;;;;;;;;;;;;5053048;28;1897;-74
2021/01/18 00:38:03;;;;;;;;;;;;;;;;;;5053437;28;1195;-74
2021/01/18 00:40:28;;;;;;;;;;;;;;;;;;5053319;28;1481;-73
2021/01/18 00:42:54;;;;;;;;;;;;;;;;;;5054527;28;925;-74
2021/01/18 00:45:20;;;;;;;;;;;;;;;;;;5053148;28;1485;-74
2021/01/18 00:47:55;;;;;;;;;;;;;;;;;;5053294;28;1182;-74
2021/01/18 00:50:22;;;;;;;;;;;;;;;;;;5053084;28;1412;-73
2021/01/18 00:52:48;;;;;;;;;;;;;;;;;;5054497;28;880;-72
2021/01/18 00:55:16;;;;;;;;;;;;;;;;;;5054015;28;1947;-73
2021/01/18 00:57:42;;;;;;;;;;;;;;;;;;5053258;28;1251;-73
2021/01/18 01:00:09;;;;;;;;;;;;;;;;;;5054317;28;900;-72
2021/01/18 01:02:44;;;;;;;;;;;;;;;;;;5052911;28;869;-72
2021/01/18 01:05:11;;;;;;;;;;;;;;;;;;5054539;28;1298;-73
2021/01/18 01:07:39;;;;;;;;;;;;;;;;;;5054302;28;798;-74
2021/01/18 01:10:05;;;;;;;;;;;;;;;;;;5054230;28;891;-73
2021/01/18 01:12:30;;;;;;;;;;;;;;;;;;5054490;28;868;-73
2021/01/18 01:14:55;;;;;;;;;;;;;;;;;;5052811;28;1894;-72
2021/01/18 01:17:22;;;;;;;;;;;;;;;;;;5052703;28;1292;-72
2021/01/18 01:19:47;;;;;;;;;;;;;;;;;;5054254;28;883;-73
2021/01/18 01:22:12;;;;;;;;;;;;;;;;;;5052947;28;1689;-74
2021/01/18 01:24:37;;;;;;;;;;;;;;;;;;5053959;28;1266;-75
2021/01/18 01:27:03;;;;;;;;;;;;;;;;;;5052812;28;1218;-73
2021/01/18 01:29:28;;;;;;;;;;;;;;;;;;5054108;28;897;-74
2021/01/18 01:31:53;;;;;;;;;;;;;;;;;;5053888;28;948;-75
2021/01/18 01:34:18;;;;;;;;;;;;;;;;;;5053995;28;901;-74
2021/01/18 01:36:44;;;;;;;;;;;;;;;;;;5053922;28;1979;-73
2021/01/18 01:39:09;;;;;;;;;;;;;;;;;;5053612;28;869;-72
2021/01/18 01:41:34;;;;;;;;;;;;;;;;;;5053966;28;833;-73
2021/01/18 01:43:59;;;;;;;;;;;;;;;;;;5054018;28;863;-75
2021/01/18 01:46:25;;;;;;;;;;;;;;;;;;5053951;28;1310;-75
2021/01/18 01:48:50;;;;;;;;;;;;;;;;;;5053795;28;809;-73
2021/01/18 01:51:15;;;;;;;;;;;;;;;;;;5053659;28;925;-74
2021/01/18 01:53:41;;;;;;;;;;;;;;;;;;5055463;28;988;-71
2021/01/18 01:56:07;;;;;;;;;;;;;;;;;;5057689;28;1959;-75
2021/01/18 01:58:32;;;;;;;;;;;;;;;;;;5057560;28;971;-72
2021/01/18 02:00:58;;;;;;;;;;;;;;;;;;5056195;28;2755;-73
2021/01/18 02:03:40;;;;;;;;;;;;;;;;;;5057533;28;837;-74
2021/01/18 02:06:05;;;;;;;;;;;;;;;;;;5057392;28;1389;-74
2021/01/18 02:08:30;;;;;;;;;;;;;;;;;;5057600;28;841;-75
2021/01/18 02:10:56;;;;;;;;;;;;;;;;;;5056042;28;968;-73
2021/01/18 02:13:39;;;;;;;;;;;;;;;;;;5057139;28;1172;-73
2021/01/18 02:16:25;;;;;;;;;;;;;;;;;;5057011;28;1890;-72
2021/01/18 02:18:59;;;;;;;;;;;;;;;;;;5057172;28;845;-73
2021/01/18 02:21:39;;;;;;;;;;;;;;;;;;5057053;28;984;-72
2021/01/18 02:24:08;;;;;;;;;;;;;;;;;;5057095;28;991;-75
2021/01/18 02:26:51;;;;;;;;;;;;;;;;;;5057185;28;1346;-75
2021/01/18 02:29:22;;;;;;;;;;;;;;;;;;5056735;28;892;-73
2021/01/18 02:32:06;;;;;;;;;;;;;;;;;;5056781;28;837;-74
2021/01/18 02:34:34;;;;;;;;;;;;;;;;;;5056869;28;1294;-72
2021/01/18 02:37:10;;;;;;;;;;;;;;;;;;5056753;28;1894;-74
2021/01/18 02:40:01;;;;;;;;;;;;;;;;;;5056599;28;833;-73
2021/01/18 02:42:30;;;;;;;;;;;;;;;;;;5056857;28;1064;-75
2021/01/18 02:44:57;;;;;;;;;;;;;;;;;;5056795;28;1310;-73
2021/01/18 02:47:23;;;;;;;;;;;;;;;;;;5056801;28;904;-74
2021/01/18 02:49:51;;;;;;;;;;;;;;;;;;5056370;28;956;-75
2021/01/18 02:52:17;;;;;;;;;;;;;;;;;;5056582;28;884;-72
2021/01/18 02:54:42;;;;;;;;;;;;;;;;;;5056715;28;1349;-72
2021/01/18 02:57:14;;;;;;;;;;;;;;;;;;5056496;28;1954;-72
2021/01/18 02:59:41;;;;;;;;;;;;;;;;;;5056278;28;874;-72
2021/01/18 03:02:33;;;;;;;;;;;;;;;;;;5056352;28;821;-73
2021/01/18 03:05:17;;;;;;;;;;;;;;;;;;5055258;28;1444;-72
2021/01/18 03:07:48;;;;;;;;;;;;;;;;;;5056348;28;917;-77
2021/01/18 03:10:19;;;;;;;;;;;;;;;;;;5056250;28;897;-74
2021/01/18 03:12:46;;;;;;;;;;;;;;;;;;5056165;28;1451;-75
2021/01/18 03:15:13;;;;;;;;;;;;;;;;;;5056010;28;1894;-72
2021/01/18 03:17:40;;;;;;;;;;;;;;;;;;5056031;28;953;-75
2021/01/18 03:20:05;;;;;;;;;;;;;;;;;;5055948;28;825;-73
2021/01/18 03:22:31;;;;;;;;;;;;;;;;;;5056109;28;995;-73
2021/01/18 03:25:14;;;;;;;;;;;;;;;;;;5056090;28;1421;-76
2021/01/18 03:27:58;;;;;;;;;;;;;;;;;;5054966;28;1223;-76
2021/01/18 03:30:24;;;;;;;;;;;;;;;;;;5054479;28;1104;-75
2021/01/18 03:32:50;;;;;;;;;;;;;;;;;;5055834;28;890;-75
2021/01/18 03:35:16;;;;;;;;;;;;;;;;;;5055680;28;1971;-72
2021/01/18 03:37:41;;;;;;;;;;;;;;;;;;5054316;28;814;-75
2021/01/18 03:40:07;;;;;;;;;;;;;;;;;;5055703;28;833;-73
2021/01/18 03:42:32;;;;;;;;;;;;;;;;;;5054372;28;1793;-75
2021/01/18 03:44:57;;;;;;;;;;;;;;;;;;5055560;28;1364;-73
2021/01/18 03:47:23;;;;;;;;;;;;;;;;;;5055497;28;1018;-74
2021/01/18 03:49:48;;;;;;;;;;;;;;;;;;5055509;28;987;-73
2021/01/18 03:52:13;;;;;;;;;;;;;;;;;;5055386;28;857;-72
2021/01/18 03:54:38;;;;;;;;;;;;;;;;;;5055354;28;1397;-74
2021/01/18 03:57:03;;;;;;;;;;;;;;;;;;5054062;28;1965;-73
2021/01/18 03:59:29;;;;;;;;;;;;;;;;;;5055377;28;944;-74
2021/01/18 04:01:54;;;;;;;;;;;;;;;;;;5055242;28;798;-75
2021/01/18 04:04:19;;;;;;;;;;;;;;;;;;5055127;28;869;-74
2021/01/18 04:06:44;;;;;;;;;;;;;;;;;;5054150;28;1556;-75
2021/01/18 04:09:10;;;;;;;;;;;;;;;;;;5055178;28;923;-75
2021/01/18 04:11:35;;;;;;;;;;;;;;;;;;5055078;28;878;-73
2021/01/18 04:14:00;;;;;;;;;;;;;;;;;;5055277;28;863;-76
2021/01/18 04:16:26;;;;;;;;;;;;;;;;;;5054606;28;1898;-75
2021/01/18 04:18:51;;;;;;;;;;;;;;;;;;5054738;28;917;-73
2021/01/18 04:21:16;;;;;;;;;;;;;;;;;;5053606;28;1344;-72
2021/01/18 04:23:42;;;;;;;;;;;;;;;;;;5053558;28;945;-72
2021/01/18 04:26:07;;;;;;;;;;;;;;;;;;5053604;28;1373;-72
2021/01/18 04:28:32;;;;;;;;;;;;;;;;;;5054940;28;813;-70
2021/01/18 04:30:58;;;;;;;;;;;;;;;;;;5054426;28;862;-74
2021/01/18 04:33:25;;;;;;;;;;;;;;;;;;5054747;28;964;-73
2021/01/18 04:35:50;;;;;;;;;;;;;;;;;;5054556;28;1969;-73
2021/01/18 04:38:16;;;;;;;;;;;;;;;;;;5054655;28;908;-73
2021/01/18 04:40:42;;;;;;;;;;;;;;;;;;5053364;28;1152;-73
2021/01/18 04:43:07;;;;;;;;;;;;;;;;;;5054754;28;914;-74
2021/01/18 04:45:32;;;;;;;;;;;;;;;;;;5053169;28;1732;-73
2021/01/18 04:47:58;;;;;;;;;;;;;;;;;;5054653;28;1031;-70
2021/01/18 04:50:24;;;;;;;;;;;;;;;;;;5054372;28;900;-74
2021/01/18 04:52:51;;;;;;;;;;;;;;;;;;5054397;28;1136;-77
2021/01/18 04:55:28;;;;;;;;;;;;;;;;;;5053070;28;1910;-75
2021/01/18 04:58:07;;;;;;;;;;;;;;;;;;5054489;28;875;-71
2021/01/18 05:00:51;;;;;;;;;;;;;;;;;;5054271;28;868;-76
2021/01/18 05:03:17;;;;;;;;;;;;;;;;;;5054389;28;877;-73
2021/01/18 05:05:45;;;;;;;;;;;;;;;;;;5054257;28;1417;-77
2021/01/18 05:08:30;;;;;;;;;;;;;;;;;;5054340;28;979;-71
2021/01/18 05:10:56;;;;;;;;;;;;;;;;;;5053409;28;1366;-75
2021/01/18 05:13:22;;;;;;;;;;;;;;;;;;5052867;28;2650;-75
2021/01/18 05:15:48;;;;;;;;;;;;;;;;;;5053969;28;1906;-76
2021/01/18 05:18:13;;;;;;;;;;;;;;;;;;5054326;28;834;-74
2021/01/18 05:20:38;;;;;;;;;;;;;;;;;;5052758;28;1198;-74
2021/01/18 05:23:07;;;;;;;;;;;;;;;;;;5054120;28;890;-74
2021/01/18 05:25:32;;;;;;;;;;;;;;;;;;5052814;28;1341;-75
2021/01/18 05:27:59;;;;;;;;;;;;;;;;;;5054895;28;971;-75
2021/01/18 05:30:25;;;;;;;;;;;;;;;;;;5057909;28;936;-76
2021/01/18 05:32:59;;;;;;;;;;;;;;;;;;5058175;28;1074;-76
2021/01/18 05:35:25;;;;;;;;;;;;;;;;;;5057977;28;1906;-71
2021/01/18 05:37:57;;;;;;;;;;;;;;;;;;5056524;28;1296;-77
2021/01/18 05:40:23;;;;;;;;;;;;;;;;;;5056547;28;1238;-74
2021/01/18 05:42:50;;;;;;;;;;;;;;;;;;5056860;28;1239;-74
2021/01/18 05:45:24;;;;;;;;;;;;;;;;;;5057780;28;1306;-76
2021/01/18 05:47:50;;;;;;;;;;;;;;;;;;5056459;28;1342;-72
2021/01/18 05:50:17;;;;;;;;;;;;;;;;;;5057651;28;1036;-74
2021/01/18 05:52:42;;;;;;;;;;;;;;;;;;5057702;28;876;-76
2021/01/18 05:55:14;;;;;;;;;;;;;;;;;;5057393;28;1967;-73
2021/01/18 05:57:43;;;;;;;;;;;;;;;;;;5057756;28;833;-74
2021/01/18 06:00:08;;;;;;;;;;;;;;;;;;5057492;28;872;-74
2021/01/18 06:02:37;;;;;;;;;;;;;;;;;;5057362;28;861;-72
2021/01/18 06:05:06;;;;;;;;;;;;;;;;;;5057549;28;1439;-78
2021/01/18 06:07:32;;;;;;;;;;;;;;;;;;5057299;28;869;-71
2021/01/18 06:09:57;;;;;;;;;;;;;;;;;;5055802;28;2370;-76
2021/01/18 06:12:23;;;;;;;;;;;;;;;;;;5057312;28;855;-75
2021/01/18 06:15:09;;;;;;;;;;;;;;;;;;5057132;28;1258;-76
2021/01/18 06:17:54;;;;;;;;;;;;;;;;;;5056872;28;1187;-74
2021/01/18 06:20:19;;;;;;;;;;;;;;;;;;5055692;28;1587;-74
2021/01/18 06:22:55;;;;;;;;;;;;;;;;;;5057300;28;868;-73
2021/01/18 06:25:20;;;;;;;;;;;;;;;;;;5057009;28;1353;-74
2021/01/18 06:27:46;;;;;;;;;;;;;;;;;;5057076;28;864;-76
2021/01/18 06:30:31;;;;;;;;;;;;;;;;;;5055378;28;1780;-76
2021/01/18 06:32:57;;;;;;;;;;;;;;;;;;5055719;28;1528;-75
2021/01/18 06:35:23;;;;;;;;;;;;;;;;;;5057084;28;1906;-74
2021/01/18 06:38:02;;;;;;;;;;;;;;;;;;5056860;28;853;-72
2021/01/18 06:40:29;;;;;;;;;;;;;;;;;;5056659;28;879;-74
2021/01/18 06:42:56;;;;;;;;;;;;;;;;;;5055540;28;1330;-72
2021/01/18 06:45:21;;;;;;;;;;;;;;;;;;5056552;28;1377;-74
2021/01/18 06:47:46;;;;;;;;;;;;;;;;;;5056777;28;980;-72
2021/01/18 06:50:12;;;;;;;;;;;;;;;;;;5055159;28;1321;-73
2021/01/18 06:52:44;;;;;;;;;;;;;;;;;;5055359;28;1306;-73
2021/01/18 06:55:10;;;;;;;;;;;;;;;;;;5056325;28;1968;-77
2021/01/18 06:57:50;;;;;;;;;;;;;;;;;;5056529;28;1043;-74
2021/01/18 07:00:17;;;;;;;;;;;;;;;;;;5055029;28;1234;-76
2021/01/18 07:02:48;;;;;;;;;;;;;;;;;;5055519;28;862;-78
2021/01/18 07:05:17;;;;;;;;;;;;;;;;;;5056087;28;1282;-77
2021/01/18 07:07:54;;;;;;;;;;;;;;;;;;5056035;28;971;-73
2021/01/18 07:10:21;;;;;;;;;;;;;;;;;;5055947;28;908;-76
2021/01/18 07:12:47;;;;;;;;;;;;;;;;;;5054957;28;1984;-77
2021/01/18 07:15:13;;;;;;;;;;;;;;;;;;5054561;28;1952;-74
2021/01/18 07:17:38;;;;;;;;;;;;;;;;;;5055952;28;990;-76
2021/01/18 07:20:15;;;;;;;;;;;;;;;;;;5055750;28;932;-78
2021/01/18 07:22:54;;;;;;;;;;;;;;;;;;5055880;28;936;-76
2021/01/18 07:25:21;;;;;;;;;;;;;;;;;;5055861;28;1416;-77
2021/01/18 07:27:49;;;;;;;;;;;;;;;;;;5055984;28;905;-75
2021/01/18 07:30:15;;;;;;;;;;;;;;;;;;5055592;28;813;-76
2021/01/18 07:32:41;;;;;;;;;;;;;;;;;;5055020;28;1317;-77
2021/01/18 07:35:07;;;;;;;;;;;;;;;;;;5055414;28;1902;-74
2021/01/18 07:37:32;;;;;;;;;;;;;;;;;;5055728;28;889;-74
2021/01/18 07:40:11;;;;;;;;;;;;;;;;;;5054289;28;1646;-77
2021/01/18 07:42:37;;;;;;;;;;;;;;;;;;5055740;28;853;-74
2021/01/18 07:45:11;;;;;;;;;;;;;;;;;;5055429;28;1385;-75
2021/01/18 07:47:55;;;;;;;;;;;;;;;;;;5055632;28;837;-77
2021/01/18 07:50:26;;;;;;;;;;;;;;;;;;5054870;28;885;-76
2021/01/18 07:52:56;;;;;;;;;;;;;;;;;;5055309;28;829;-75
2021/01/18 07:55:22;;;;;;;;;;;;;;;;;;5054140;28;1894;-77
2021/01/18 07:57:47;;;;;;;;;;;;;;;;;;5055147;28;893;-77
2021/01/18 08:00:18;;;;;;;;;;;;;;;;;;5055327;28;813;-77
2021/01/18 08:02:47;;;;;;;;;;;;;;;;;;5055544;28;884;-77
2021/01/18 08:05:31;;;;;;;;;;;;;;;;;;5055185;28;1333;-77
2021/01/18 08:08:05;;;;;;;;;;;;;;;;;;5055002;28;889;-75
2021/01/18 08:10:49;;;;;;;;;;;;;;;;;;5053618;28;1493;-76
2021/01/18 08:13:26;;;;;;;;;;;;;;;;;;5055562;28;821;-72
2021/01/18 08:15:51;;;;;;;;;;;;;;;;;;5054735;28;1898;-74
2021/01/18 08:18:27;;;;;;;;;;;;;;;;;;5054860;28;932;-74
2021/01/18 08:20:52;;;;;;;;;;;;;;;;;;5053586;28;1571;-72
2021/01/18 08:23:36;;;;;;;;;;;;;;;;;;5053654;28;1309;-75
2021/01/18 08:26:04;;;;;;;;;;;;;;;;;;5055031;28;1340;-74
2021/01/18 08:28:29;;;;;;;;;;;;;;;;;;5053646;28;897;-73
2021/01/18 08:30:57;;;;;;;;;;;;;;;;;;5053632;28;1007;-72
2021/01/18 08:33:25;;;;;;;;;;;;;;;;;;5054772;28;936;-74
2021/01/18 08:35:51;;;;;;;;;;;;;;;;;;5054605;28;1968;-78
2021/01/18 08:38:21;;;;;;;;;;;;;;;;;;5054827;28;1030;-76
2021/01/18 08:40:49;;;;;;;;;;;;;;;;;;5053249;28;1214;-75
2021/01/18 08:43:15;;;;;;;;;;;;;;;;;;5054706;28;809;-76
2021/01/18 08:45:51;;;;;;;;;;;;;;;;;;5054418;28;1301;-74
2021/01/18 08:48:26;;;;;;;;;;;;;;;;;;5054657;28;827;-72
2021/01/18 08:50:55;;;;;;;;;;;;;;;;;;5054530;28;896;-75
2021/01/18 08:53:27;;;;;;;;;;;;;;;;;;5053139;28;1341;-74
2021/01/18 08:55:59;;;;;;;;;;;;;;;;;;5053138;28;1976;-75
2021/01/18 08:58:34;;;;;;;;;;;;;;;;;;5054348;28;813;-74
2021/01/18 09:00:59;;;;;;;;;;;;;;;;;;5054436;28;802;-76
2021/01/18 09:03:25;;;;;;;;;;;;;;;;;;5053588;28;820;-74
2021/01/18 09:05:55;;;;;;;;;;;;;;;;;;5052908;28;1345;-78
2021/01/18 09:08:21;;;;;;;;;;;;;;;;;;5053125;28;1634;-76
2021/01/18 09:10:57;;;;;;;;;;;;;;;;;;5053277;28;1219;-78
2021/01/18 09:13:23;;;;;;;;;;;;;;;;;;5053180;28;897;-76
2021/01/18 09:15:49;;;;;;;;;;;;;;;;;;5052698;28;1886;-74
2021/01/18 09:18:15;;;;;;;;;;;;;;;;;;5053333;28;1307;-76
2021/01/18 09:20:40;;;;;;;;;;;;;;;;;;5054106;28;809;-74
2021/01/18 09:23:07;;;;;;;;;;;;;;;;;;5052935;28;1283;-76
2021/01/18 09:25:33;;;;;;;;;;;;;;;;;;5052834;28;1497;-73
2021/01/18 09:28:02;;;;;;;;;;;;;;;;;;5054362;28;964;-74
2021/01/18 09:30:27;;;;;;;;;;;;;;;;;;5054359;28;904;-74
2021/01/18 09:32:54;;;;;;;;;;;;;;;;;;5054284;28;901;-74
2021/01/18 09:35:19;;;;;;;;;;;;;;;;;;5053990;28;1894;-73
2021/01/18 09:37:45;;;;;;;;;;;;;;;;;;5054170;28;849;-76
2021/01/18 09:40:11;;;;;;;;;;;;;;;;;;5053979;28;960;-78
2021/01/18 09:42:37;;;;;;;;;;;;;;;;;;5053220;28;881;-77
2021/01/18 09:45:07;;;;;;;;;;;;;;;;;;5052556;28;1396;-77
2021/01/18 09:47:32;;;;;;;;;;;;;;;;;;5053937;28;991;-74
2021/01/18 09:50:08;;;;;;;;;;;;;;;;;;5052718;28;1401;-75
2021/01/18 09:52:37;;;;;;;;;;;;;;;;;;5054160;28;841;-76
2021/01/18 09:55:03;;;;;;;;;;;;;;;;;;5053783;28;1890;-77
2021/01/18 09:57:29;;;;;;;;;;;;;;;;;;5053903;28;868;-74
2021/01/18 09:59:54;;;;;;;;;;;;;;;;;;5053649;28;936;-74
2021/01/18 10:02:21;;;;;;;;;;;;;;;;;;5053852;28;851;-76
2021/01/18 10:04:48;;;;;;;;;;;;;;;;;;5053726;28;1325;-75
2021/01/18 10:07:14;;;;;;;;;;;;;;;;;;5053738;28;809;-76
2021/01/18 10:09:40;;;;;;;;;;;;;;;;;;5052458;28;1331;-76
2021/01/18 10:12:06;;;;;;;;;;;;;;;;;;5053843;28;894;-77
2021/01/18 10:14:31;;;;;;;;;;;;;;;;;;5053833;28;1357;-77
2021/01/18 10:16:57;;;;;;;;;;;;;;;;;;5055844;28;1894;-74
2021/01/18 10:19:22;;;;;;;;;;;;;;;;;;5057329;28;813;-76
2021/01/18 10:21:48;;;;;;;;;;;;;;;;;;5055682;28;1179;-75
2021/01/18 10:24:23;;;;;;;;;;;;;;;;;;5057303;28;919;-76
2021/01/18 10:26:50;;;;;;;;;;;;;;;;;;5056397;28;1507;-74
2021/01/18 10:29:21;;;;;;;;;;;;;;;;;;5056474;28;845;-74
2021/01/18 10:31:50;;;;;;;;;;;;;;;;;;5056910;28;813;-76
2021/01/18 10:34:24;;;;;;;;;;;;;;;;;;5057205;28;914;-77
2021/01/18 10:36:51;;;;;;;;;;;;;;;;;;5056742;28;1906;-72
2021/01/18 10:39:34;;;;;;;;;;;;;;;;;;5057047;28;834;-74
2021/01/18 10:42:04;;;;;;;;;;;;;;;;;;5055327;28;1052;-73
2021/01/18 10:44:29;;;;;;;;;;;;;;;;;;5056829;28;1403;-75
2021/01/18 10:46:55;;;;;;;;;;;;;;;;;;5056882;28;936;-75
2021/01/18 10:49:24;;;;;;;;;;;;;;;;;;5055974;28;1135;-74
2021/01/18 10:52:09;;;;;;;;;;;;;;;;;;5055673;28;885;-74
2021/01/18 10:54:35;;;;;;;;;;;;;;;;;;5056641;28;1317;-71
2021/01/18 10:57:01;;;;;;;;;;;;;;;;;;5056399;28;1894;-74
2021/01/18 10:59:27;;;;;;;;;;;;;;;;;;5056593;28;805;-74
2021/01/18 11:02:01;;;;;;;;;;;;;;;;;;5056269;28;1003;-73
2021/01/18 11:04:27;;;;;;;;;;;;;;;;;;5056397;28;1250;-74
2021/01/18 11:06:54;;;;;;;;;;;;;;;;;;5054911;28;1491;-72
2021/01/18 11:09:26;;;;;;;;;;;;;;;;;;5056506;28;908;-74
2021/01/18 11:11:51;;;;;;;;;;;;;;;;;;5056187;28;933;-72
2021/01/18 11:14:16;;;;;;;;;;;;;;;;;;5055253;28;1152;-74
2021/01/18 11:16:42;;;;;;;;;;;;;;;;;;5055905;28;1964;-73
2021/01/18 11:19:07;;;;;;;;;;;;;;;;;;5055126;28;1333;-75
2021/01/18 11:21:32;;;;;;;;;;;;;;;;;;5056071;28;790;-73
2021/01/18 11:23:57;;;;;;;;;;;;;;;;;;5055045;28;1208;-77
2021/01/18 11:26:23;;;;;;;;;;;;;;;;;;5054799;28;1282;-75
2021/01/18 11:28:49;;;;;;;;;;;;;;;;;;5054758;28;889;-75
2021/01/18 11:31:14;;;;;;;;;;;;;;;;;;5054609;28;857;-76
2021/01/18 11:33:40;;;;;;;;;;;;;;;;;;5054585;28;1375;-73
2021/01/18 11:36:05;;;;;;;;;;;;;;;;;;5055953;28;1890;-74
2021/01/18 11:38:30;;;;;;;;;;;;;;;;;;5055729;28;794;-73
2021/01/18 11:40:56;;;;;;;;;;;;;;;;;;5054377;28;1120;-76
2021/01/18 11:43:21;;;;;;;;;;;;;;;;;;5055954;28;850;-72
2021/01/18 11:45:46;;;;;;;;;;;;;;;;;;5055711;28;1373;-74
2021/01/18 11:48:11;;;;;;;;;;;;;;;;;;5055629;28;833;-74
2021/01/18 11:50:37;;;;;;;;;;;;;;;;;;5055499;28;846;-74
2021/01/18 11:53:02;;;;;;;;;;;;;;;;;;5055424;28;884;-76
2021/01/18 11:55:28;;;;;;;;;;;;;;;;;;5054074;28;1886;-74
2021/01/18 11:57:53;;;;;;;;;;;;;;;;;;5054126;28;855;-73
2021/01/18 12:00:25;;;;;;;;;;;;;;;;;;5053958;28;821;-73
2021/01/18 12:02:55;;;;;;;;;;;;;;;;;;5055303;28;829;-74
2021/01/18 12:05:22;;;;;;;;;;;;;;;;;;5055279;28;1258;-75
2021/01/18 12:07:47;;;;;;;;;;;;;;;;;;5055250;28;922;-74
2021/01/18 12:10:13;;;;;;;;;;;;;;;;;;5059254;28;1986;-74
2021/01/18 12:12:38;;;;;;;;;;;;;;;;;;5055576;28;1081;-72
2021/01/18 12:15:04;;;;;;;;;;;;;;;;;;5060215;28;1420;-75
2021/01/18 12:17:29;;;;;;;;;;;;;;;;;;5074833;28;1902;-74
2021/01/18 12:19:54;;;;;;;;;;;;;;;;;;5073676;28;1350;-77
2021/01/18 12:22:19;;;;;;;;;;;;;;;;;;5074540;28;884;-73
2021/01/18 12:24:45;;;;;;;;;;;;;;;;;;5075015;28;1270;-75
2021/01/18 12:27:10;;;;;;;;;;;;;;;;;;5073429;28;861;-73
2021/01/18 12:29:35;;;;;;;;;;;;;;;;;;5073539;28;2449;-73
2021/01/18 12:32:01;;;;;;;;;;;;;;;;;;5074912;28;867;-78
2021/01/18 12:34:26;;;;;;;;;;;;;;;;;;5073618;28;1912;-75
2021/01/18 12:36:55;;;;;;;;;;;;;;;;;;5073375;28;2549;-75
2021/01/18 12:39:21;;;;;;;;;;;;;;;;;;5073653;28;1702;-78
2021/01/18 12:41:46;;;;;;;;;;;;;;;;;;5074462;28;821;-76
2021/01/18 12:44:11;;;;;;;;;;;;;;;;;;5072921;28;2197;-76
2021/01/18 12:46:36;;;;;;;;;;;;;;;;;;5065495;28;1472;-76
2021/01/18 12:49:02;;;;;;;;;;;;;;;;;;5054857;28;813;-78
2021/01/18 12:51:27;;;;;;;;;;;;;;;;;;5054420;28;932;-75
2021/01/18 12:53:52;;;;;;;;;;;;;;;;;;5054403;28;1041;-74
2021/01/18 12:56:19;;;;;;;;;;;;;;;;;;5054373;28;1956;-76
2021/01/18 12:58:44;;;;;;;;;;;;;;;;;;5054607;28;886;-75
2021/01/18 13:01:10;;;;;;;;;;;;;;;;;;5054319;28;1159;-74
2021/01/18 13:03:35;;;;;;;;;;;;;;;;;;5054700;28;793;-72
2021/01/18 13:06:00;;;;;;;;;;;;;;;;;;5053107;28;1290;-74
2021/01/18 13:08:25;;;;;;;;;;;;;;;;;;5054270;28;963;-75
2021/01/18 13:10:58;;;;;;;;;;;;;;;;;;5054214;28;992;-72
2021/01/18 13:13:23;;;;;;;;;;;;;;;;;;5054534;28;979;-75
2021/01/18 13:15:48;;;;;;;;;;;;;;;;;;5053665;28;1898;-74
2021/01/18 13:18:14;;;;;;;;;;;;;;;;;;5063562;28;2185;-75
2021/01/18 13:20:39;;;;;;;;;;;;;;;;;;5059609;28;1319;-75
2021/01/18 13:23:04;;;;;;;;;;;;;;;;;;5073215;28;1285;-73
2021/01/18 13:25:29;;;;;;;;;;;;;;;;;;5074315;28;1405;-73
2021/01/18 13:27:54;;;;;;;;;;;;;;;;;;5074162;28;881;-75
2021/01/18 13:30:20;;;;;;;;;;;;;;;;;;5074144;28;868;-75
2021/01/18 13:32:47;;;;;;;;;;;;;;;;;;5074306;28;817;-77
2021/01/18 13:35:12;;;;;;;;;;;;;;;;;;5073052;28;1953;-75
2021/01/18 13:37:37;;;;;;;;;;;;;;;;;;5074381;28;892;-76
2021/01/18 13:40:03;;;;;;;;;;;;;;;;;;5074187;28;980;-75
2021/01/18 13:42:29;;;;;;;;;;;;;;;;;;5074506;28;868;-77
2021/01/18 13:44:54;;;;;;;;;;;;;;;;;;5074242;28;1286;-77
2021/01/18 13:47:19;;;;;;;;;;;;;;;;;;5072968;28;1190;-77
2021/01/18 13:49:44;;;;;;;;;;;;;;;;;;5076001;28;971;-77
2021/01/18 13:52:09;;;;;;;;;;;;;;;;;;5077807;28;939;-77
2021/01/18 13:54:35;;;;;;;;;;;;;;;;;;5076568;28;1471;-77
2021/01/18 13:57:00;;;;;;;;;;;;;;;;;;5060273;28;1939;-73
2021/01/18 13:59:25;;;;;;;;;;;;;;;;;;5057727;28;802;-75
2021/01/18 14:01:51;;;;;;;;;;;;;;;;;;5056451;28;1624;-77
2021/01/18 14:04:16;;;;;;;;;;;;;;;;;;5057654;28;798;-79
2021/01/18 14:06:41;;;;;;;;;;;;;;;;;;5057554;28;1420;-79
2021/01/18 14:09:13;;;;;;;;;;;;;;;;;;5057867;28;798;-76
2021/01/18 14:11:40;;;;;;;;;;;;;;;;;;5057672;28;825;-76
2021/01/18 14:14:06;;;;;;;;;;;;;;;;;;5057667;28;897;-76
2021/01/18 14:16:32;;;;;;;;;;;;;;;;;;5057147;28;1955;-77
2021/01/18 14:18:57;;;;;;;;;;;;;;;;;;5057397;28;979;-74
2021/01/18 14:21:40;;;;;;;;;;;;;;;;;;5057326;28;896;-75
2021/01/18 14:24:07;;;;;;;;;;;;;;;;;;5057243;28;1010;-76
2021/01/18 14:26:32;;;;;;;;;;;;;;;;;;5055811;28;1421;-76
2021/01/18 14:28:58;;;;;;;;;;;;;;;;;;5056041;28;1811;-76
2021/01/18 14:31:28;;;;;;;;;;;;;;;;;;5055777;28;1286;-76
2021/01/18 14:33:56;;;;;;;;;;;;;;;;;;5057041;28;806;-76
2021/01/18 14:36:22;;;;;;;;;;;;;;;;;;5056610;28;1898;-76
2021/01/18 14:38:48;;;;;;;;;;;;;;;;;;5057161;28;856;-76
2021/01/18 14:41:20;;;;;;;;;;;;;;;;;;5055545;28;1309;-76
2021/01/18 14:43:46;;;;;;;;;;;;;;;;;;5056002;28;1118;-76
2021/01/18 14:46:11;;;;;;;;;;;;;;;;;;5056761;28;1357;-76
2021/01/18 14:48:37;;;;;;;;;;;;;;;;;;5056594;28;951;-76
2021/01/18 14:51:03;;;;;;;;;;;;;;;;;;5056565;28;833;-76
2021/01/18 14:53:28;;;;;;;;;;;;;;;;;;5055849;28;892;-76
2021/01/18 14:55:53;;;;;;;;;;;;;;;;;;5055243;28;1898;-76
2021/01/18 14:58:18;;;;;;;;;;;;;;;;;;5056487;28;861;-76
2021/01/18 15:00:44;;;;;;;;;;;;;;;;;;5056396;28;806;-76
2021/01/18 15:03:09;;;;;;;;;;;;;;;;;;5056768;28;798;-76
2021/01/18 15:05:34;;;;;;;;;;;;;;;;;;5056255;28;1293;-76
2021/01/18 15:07:59;;;;;;;;;;;;;;;;;;5056411;28;960;-76
2021/01/18 15:10:25;;;;;;;;;;;;;;;;;;5056189;28;817;-76
2021/01/18 15:12:50;;;;;;;;;;;;;;;;;;5054897;28;1217;-76
2021/01/18 15:15:15;;;;;;;;;;;;;;;;;;5055137;28;1894;-77
2021/01/18 15:17:40;;;;;;;;;;;;;;;;;;5056111;28;987;-76
2021/01/18 15:20:06;;;;;;;;;;;;;;;;;;5055818;28;1067;-76
2021/01/18 15:22:31;;;;;;;;;;;;;;;;;;5056199;28;885;-76
2021/01/18 15:24:57;;;;;;;;;;;;;;;;;;5056129;28;1286;-76
2021/01/18 15:27:22;;;;;;;;;;;;;;;;;;5054683;28;1332;-76
2021/01/18 15:29:47;;;;;;;;;;;;;;;;;;5055974;28;920;-76
2021/01/18 15:32:12;;;;;;;;;;;;;;;;;;5055908;28;889;-76
2021/01/18 15:34:38;;;;;;;;;;;;;;;;;;5055949;28;1334;-76
2021/01/18 15:37:03;;;;;;;;;;;;;;;;;;5055819;28;1957;-76
2021/01/18 15:39:28;;;;;;;;;;;;;;;;;;5054738;28;2469;-76
2021/01/18 15:41:53;;;;;;;;;;;;;;;;;;5055634;28;857;-76
2021/01/18 15:44:19;;;;;;;;;;;;;;;;;;5054563;28;1383;-77
2021/01/18 15:46:45;;;;;;;;;;;;;;;;;;5055269;28;1318;-77
2021/01/18 15:49:10;;;;;;;;;;;;;;;;;;5053964;28;1453;-77
2021/01/18 15:51:35;;;;;;;;;;;;;;;;;;5054114;28;929;-77
2021/01/18 15:54:00;;;;;;;;;;;;;;;;;;5055119;28;1007;-77
2021/01/18 15:56:26;;;;;;;;;;;;;;;;;;5055016;28;1890;-76
2021/01/18 15:58:51;;;;;;;;;;;;;;;;;;5053719;28;1270;-76
2021/01/18 16:01:17;;;;;;;;;;;;;;;;;;5054555;28;920;-77
2021/01/18 16:03:42;;;;;;;;;;;;;;;;;;5053470;28;1105;-76
2021/01/18 16:06:08;;;;;;;;;;;;;;;;;;5054679;28;1318;-76
2021/01/18 16:08:33;;;;;;;;;;;;;;;;;;5054722;28;881;-76
2021/01/18 16:10:58;;;;;;;;;;;;;;;;;;5053562;28;821;-77
2021/01/18 16:13:24;;;;;;;;;;;;;;;;;;5052731;28;863;-76
2021/01/18 16:15:49;;;;;;;;;;;;;;;;;;5053054;28;1951;-77
2021/01/18 16:18:14;;;;;;;;;;;;;;;;;;5054384;28;835;-77
2021/01/18 16:20:39;;;;;;;;;;;;;;;;;;5054841;28;794;-77
2021/01/18 16:23:05;;;;;;;;;;;;;;;;;;5054407;28;830;-76
2021/01/18 16:25:30;;;;;;;;;;;;;;;;;;5054222;28;1361;-77
2021/01/18 16:27:55;;;;;;;;;;;;;;;;;;5054242;28;904;-76
2021/01/18 16:30:21;;;;;;;;;;;;;;;;;;5054337;28;865;-76
2021/01/18 16:32:46;;;;;;;;;;;;;;;;;;5054370;28;873;-76
2021/01/18 16:35:13;;;;;;;;;;;;;;;;;;5054165;28;1380;-77
2021/01/18 16:37:39;;;;;;;;;;;;;;;;;;5053992;28;1947;-76
2021/01/18 16:40:05;;;;;;;;;;;;;;;;;;5054059;28;897;-76
2021/01/18 16:42:30;;;;;;;;;;;;;;;;;;5054300;28;885;-77
2021/01/18 16:44:55;;;;;;;;;;;;;;;;;;5053956;28;1401;-77
2021/01/18 16:47:21;;;;;;;;;;;;;;;;;;5052497;28;1393;-77
2021/01/18 16:49:46;;;;;;;;;;;;;;;;;;5053837;28;802;-76
2021/01/18 16:52:12;;;;;;;;;;;;;;;;;;5053064;28;1164;-77
2021/01/18 16:54:38;;;;;;;;;;;;;;;;;;5053972;28;1401;-77
2021/01/18 16:57:03;;;;;;;;;;;;;;;;;;5053670;28;1890;-76
2021/01/18 16:59:29;;;;;;;;;;;;;;;;;;5053925;28;1044;-77
2021/01/18 17:01:57;;;;;;;;;;;;;;;;;;5053966;28;882;-78
2021/01/18 17:04:22;;;;;;;;;;;;;;;;;;5053967;28;941;-78
2021/01/18 17:06:47;;;;;;;;;;;;;;;;;;5053624;28;1318;-75
2021/01/18 17:09:14;;;;;;;;;;;;;;;;;;5053706;28;873;-77
2021/01/18 17:11:40;;;;;;;;;;;;;;;;;;5052503;28;936;-76
2021/01/18 17:14:05;;;;;;;;;;;;;;;;;;5053938;28;845;-76